サンフランシスコ の空港の天気 - METARとTAF

サンフランシスコ国際空港 ( KSFO / SFO ) - アメリカ カリフォルニア州サンマテオ郡
飛行場実況気象(Metar)
観測時間08/14 11:56 PDT (08/14 18:56 UTC)
風向・風速北東 2m/s
視程10km以上
天気現象
少しの雲 雲底高度 1220m
全天の8割程度の雲 雲底高度 6100m
気温25℃
湿度60%
気圧1012.6hPa
METARKSFO 141856Z 04003KT 10SM FEW040 BKN200 25/17 A2990 RMK AO2 SLP126 T02500167
過去の天気等 Google飛行場航空写真 Wunderground天気予報

過去48時間のMETAR

飛行場予報(TAF)
発表時間: 8/14 10:21 PDT (8/14 17:21 UTC)
予報対象時間: 14日11時 PDT ~ 15日17時 PDT
風向・風速北東 4m/s
視程10km以上
全天の8割程度の雲 雲底高度 4570m
14日14時 PDT から
風向・風速北西 8m/s
視程10km以上
全天の4割程度の雲 雲底高度 6100m
14日21時 PDT から
風向・風速西北西 6m/s
視程10km以上
少しの雲 雲底高度 610m
全天の4割程度の雲 雲底高度 4570m
15日3時 PDT から
風向・風速西北西 4m/s
視程10km以上
全天の4割程度の雲 雲底高度 4570m
15日10時 PDT から
風向・風速北北西 4m/s
視程10km以上
全天の4割程度の雲 雲底高度 6100m
15日14時 PDT から
風向・風速西北西 8m/s
視程10km以上
少しの雲 雲底高度 6100m
KSFO 141721Z 1418/1524 04007KT P6SM BKN150
FM142100 31015KT P6SM SCT200
FM150400 29011KT P6SM FEW020 SCT150
FM151000 29007KT P6SM SCT150
FM151700 33007KT P6SM SCT200
FM152100 30015KT P6SM FEW200